createdAt,value
2018-06-17T00:00:14.875Z,58.59
2018-06-17T00:02:42.862Z,58.28
2018-06-17T00:05:10.509Z,58.66
2018-06-17T00:07:38.168Z,58.87
2018-06-17T00:10:06.229Z,58.46
2018-06-17T00:12:33.928Z,58.75
2018-06-17T00:15:01.563Z,58.30
2018-06-17T00:17:29.711Z,58.45
2018-06-17T00:19:57.333Z,58.28
2018-06-17T00:22:24.963Z,58.71
2018-06-17T00:24:53.045Z,58.26
2018-06-17T00:27:20.662Z,58.76
2018-06-17T00:29:48.231Z,58.58
2018-06-17T00:32:16.135Z,58.86
2018-06-17T00:34:43.735Z,58.79
2018-06-17T00:37:11.380Z,58.94
2018-06-17T00:39:39.214Z,59.08
2018-06-17T00:42:06.825Z,58.72
2018-06-17T00:44:34.472Z,58.73
2018-06-17T00:47:02.398Z,59.07
2018-06-17T00:49:30.084Z,59.12
2018-06-17T00:51:57.897Z,59.28
2018-06-17T00:54:25.721Z,58.94
2018-06-17T00:57:04.620Z,58.79
2018-06-17T00:59:32.665Z,58.92
2018-06-17T01:02:00.361Z,59.07
2018-06-17T01:04:28.124Z,58.72
2018-06-17T01:06:56.000Z,59.05
2018-06-17T01:09:23.879Z,58.97
2018-06-17T01:11:51.535Z,58.72
2018-06-17T01:14:19.461Z,59.22
2018-06-17T01:16:47.140Z,59.28
2018-06-17T01:19:14.786Z,59.05
2018-06-17T01:21:42.549Z,58.76
2018-06-17T01:24:10.384Z,59.08
2018-06-17T01:26:38.002Z,59.28
2018-06-17T01:29:05.943Z,59.15
2018-06-17T01:31:33.876Z,58.88
2018-06-17T01:34:01.575Z,59.44
2018-06-17T01:36:29.249Z,59.23
2018-06-17T01:38:57.151Z,59.26
2018-06-17T01:41:24.771Z,59.46
2018-06-17T01:43:52.675Z,59.13
2018-06-17T01:46:20.596Z,59.28
2018-06-17T01:48:48.236Z,59.44
2018-06-17T01:51:16.147Z,59.44
2018-06-17T01:53:44.035Z,59.26
2018-06-17T01:56:11.689Z,59.26
2018-06-17T01:58:39.523Z,59.29
2018-06-17T02:01:07.451Z,59.45
2018-06-17T02:03:40.512Z,59.39
2018-06-17T02:06:13.571Z,59.46
2018-06-17T02:08:46.724Z,59.38
2018-06-17T02:11:20.120Z,59.47
2018-06-17T02:13:47.944Z,59.27
2018-06-17T02:16:15.873Z,59.16
2018-06-17T02:18:43.512Z,59.31
2018-06-17T02:21:11.415Z,59.27
2018-06-17T02:23:39.298Z,59.37
2018-06-17T02:26:06.957Z,59.50
2018-06-17T02:28:34.739Z,59.44
2018-06-17T02:31:02.619Z,59.18
2018-06-17T02:33:30.237Z,59.47
2018-06-17T02:35:58.089Z,59.25
2018-06-17T02:38:25.940Z,59.23
2018-06-17T02:40:53.667Z,59.20
2018-06-17T02:43:21.444Z,59.61
2018-06-17T02:45:55.003Z,59.21
2018-06-17T02:48:28.169Z,59.46
2018-06-17T02:51:01.660Z,59.47
2018-06-17T02:53:34.894Z,59.46
2018-06-17T02:56:03.379Z,59.42
2018-06-17T02:58:30.983Z,59.36
2018-06-17T03:00:58.618Z,59.32
2018-06-17T03:03:26.637Z,59.16
2018-06-17T03:05:54.307Z,59.09
2018-06-17T03:08:21.935Z,59.25
2018-06-17T03:10:49.917Z,59.14
2018-06-17T03:13:17.502Z,59.62
2018-06-17T03:15:45.186Z,59.30
2018-06-17T03:18:13.215Z,59.48
2018-06-17T03:20:40.793Z,59.38
2018-06-17T03:23:08.414Z,59.22
2018-06-17T03:25:41.905Z,59.12
2018-06-17T03:28:15.031Z,59.28
2018-06-17T03:30:48.251Z,59.16
2018-06-17T03:33:21.445Z,59.14
2018-06-17T03:35:54.862Z,59.16
2018-06-17T03:38:22.686Z,59.48
2018-06-17T03:40:50.591Z,59.55
2018-06-17T03:43:18.216Z,59.25
2018-06-17T03:45:45.933Z,59.37
2018-06-17T03:48:13.652Z,59.66
2018-06-17T03:50:41.291Z,59.48
2018-06-17T03:53:09.083Z,59.67
2018-06-17T03:55:43.622Z,59.56
2018-06-17T03:58:11.680Z,59.70
2018-06-17T04:00:39.479Z,59.62
2018-06-17T04:03:07.072Z,59.57
2018-06-17T04:05:34.874Z,59.21
2018-06-17T04:08:02.637Z,58.81
2018-06-17T04:10:30.305Z,59.08
2018-06-17T04:12:58.138Z,58.78
2018-06-17T04:15:26.009Z,58.62
2018-06-17T04:17:53.565Z,58.95
2018-06-17T04:20:21.324Z,58.83
2018-06-17T04:22:49.241Z,58.37
2018-06-17T04:25:16.897Z,58.05
2018-06-17T04:27:44.768Z,58.39
2018-06-17T04:30:12.496Z,58.39
2018-06-17T04:32:40.285Z,57.83
2018-06-17T04:35:08.041Z,58.10
2018-06-17T04:37:35.822Z,57.97
2018-06-17T04:40:03.536Z,57.89
2018-06-17T04:42:31.612Z,57.42
2018-06-17T04:44:59.544Z,57.32
2018-06-17T04:47:27.101Z,57.04
2018-06-17T04:49:54.977Z,56.73
2018-06-17T04:52:22.803Z,56.77
2018-06-17T04:54:50.473Z,56.55
2018-06-17T04:57:18.281Z,56.44
2018-06-17T04:59:46.405Z,56.64
2018-06-17T05:02:14.032Z,55.99
2018-06-17T05:04:41.777Z,55.86
2018-06-17T05:07:09.523Z,56.25
2018-06-17T05:09:37.130Z,55.68
2018-06-17T05:12:05.078Z,55.62
2018-06-17T05:14:32.825Z,55.30
2018-06-17T05:17:00.577Z,55.22
2018-06-17T05:19:28.270Z,55.68
2018-06-17T05:21:56.168Z,55.15
2018-06-17T05:24:23.773Z,55.20
2018-06-17T05:26:51.547Z,55.04
2018-06-17T05:29:19.372Z,54.76
2018-06-17T05:31:46.989Z,54.25
2018-06-17T05:34:14.678Z,54.20
2018-06-17T05:36:42.535Z,53.92
2018-06-17T05:39:11.917Z,53.92
2018-06-17T05:41:39.787Z,53.98
2018-06-17T05:44:07.639Z,53.89
2018-06-17T05:46:35.828Z,53.21
2018-06-17T05:49:03.817Z,53.04
2018-06-17T05:51:31.707Z,53.03
2018-06-17T05:53:59.358Z,53.25
2018-06-17T05:56:27.011Z,52.94
2018-06-17T05:58:54.808Z,52.77
2018-06-17T06:01:22.602Z,52.60
2018-06-17T06:03:50.410Z,52.50
2018-06-17T06:06:18.396Z,51.80
2018-06-17T06:08:46.015Z,51.74
2018-06-17T06:11:13.800Z,51.50
2018-06-17T06:13:41.725Z,51.68
2018-06-17T06:16:09.398Z,51.81
2018-06-17T06:18:37.217Z,51.22
2018-06-17T06:21:35.800Z,51.17
2018-06-17T06:24:03.753Z,50.45
2018-06-17T06:26:31.706Z,50.20
2018-06-17T06:28:59.366Z,50.34
2018-06-17T06:31:27.244Z,50.27
2018-06-17T06:33:55.151Z,50.10
2018-06-17T06:36:22.760Z,50.03
2018-06-17T06:38:50.530Z,49.74
2018-06-17T06:41:18.258Z,49.34
2018-06-17T06:43:45.937Z,48.96
2018-06-17T06:46:13.819Z,49.05
2018-06-17T06:48:41.627Z,48.59
2018-06-17T06:51:09.268Z,48.46
2018-06-17T06:53:37.180Z,48.85
2018-06-17T06:56:05.387Z,48.28
2018-06-17T06:58:33.033Z,48.36
2018-06-17T07:01:00.868Z,48.33
2018-06-17T07:03:39.969Z,48.07
2018-06-17T07:06:18.781Z,48.02
2018-06-17T07:08:57.547Z,48.07
2018-06-17T07:11:25.511Z,47.88
2018-06-17T07:13:53.145Z,47.43
2018-06-17T07:16:32.158Z,47.76
2018-06-17T07:18:59.826Z,47.45
2018-06-17T07:21:27.380Z,46.96
2018-06-17T07:23:55.065Z,46.85
2018-06-17T07:26:50.146Z,47.07
2018-06-17T07:29:32.116Z,46.39
2018-06-17T07:31:59.996Z,46.78
2018-06-17T07:34:27.597Z,46.68
2018-06-17T07:36:55.270Z,46.29
2018-06-17T07:41:33.463Z,46.30
2018-06-17T07:44:01.148Z,46.18
2018-06-17T07:46:28.751Z,46.48
2018-06-17T07:49:37.520Z,46.51
2018-06-17T07:52:16.997Z,46.15
2018-06-17T07:54:44.959Z,46.28
2018-06-17T07:57:13.597Z,45.85
2018-06-17T07:59:41.125Z,46.21
2018-06-17T08:02:09.420Z,45.95
2018-06-17T08:04:37.030Z,45.45
2018-06-17T08:07:04.612Z,45.77
2018-06-17T08:09:32.545Z,45.56
2018-06-17T08:12:00.350Z,45.30
2018-06-17T08:14:27.891Z,45.33
2018-06-17T08:16:55.887Z,45.04
2018-06-17T08:19:24.726Z,45.41
2018-06-17T08:21:52.509Z,45.51
2018-06-17T08:24:20.431Z,45.45
2018-06-17T08:26:48.094Z,44.99
2018-06-17T08:29:15.650Z,44.88
2018-06-17T08:31:43.561Z,44.82
2018-06-17T08:34:11.078Z,44.80
2018-06-17T08:36:38.974Z,44.63
2018-06-17T08:39:08.778Z,44.79
2018-06-17T08:41:36.377Z,44.51
2018-06-17T08:44:03.969Z,44.42
2018-06-17T08:46:31.824Z,44.57
2018-06-17T08:48:59.374Z,44.19
2018-06-17T08:51:26.896Z,44.44
2018-06-17T08:53:55.199Z,43.73
2018-06-17T08:56:22.721Z,43.89
2018-06-17T08:58:50.224Z,43.89
2018-06-17T09:01:18.213Z,43.67
2018-06-17T09:03:45.126Z,43.46
2018-06-17T09:06:12.282Z,43.81
2018-06-17T09:08:39.373Z,43.11
2018-06-17T09:11:06.910Z,43.53
2018-06-17T09:13:33.861Z,43.14
2018-06-17T09:16:01.944Z,42.87
2018-06-17T09:18:29.405Z,42.88
2018-06-17T09:20:56.296Z,42.85
2018-06-17T09:23:23.460Z,42.82
2018-06-17T09:25:50.356Z,42.05
2018-06-17T09:28:17.270Z,42.54
2018-06-17T09:30:44.473Z,41.99
2018-06-17T09:33:11.578Z,41.96
2018-06-17T09:35:38.466Z,41.86
2018-06-17T09:38:05.763Z,42.25
2018-06-17T09:40:32.737Z,42.05
2018-06-17T09:42:59.650Z,41.27
2018-06-17T09:45:27.016Z,40.82
2018-06-17T09:47:53.990Z,40.92
2018-06-17T09:50:20.891Z,40.73
2018-06-17T09:52:48.129Z,40.57
2018-06-17T09:55:15.053Z,40.87
2018-06-17T09:57:41.974Z,40.45
2018-06-17T10:00:09.279Z,40.83
2018-06-17T10:02:36.161Z,40.48
2018-06-17T10:05:03.155Z,39.86
2018-06-17T10:07:30.516Z,39.64
2018-06-17T10:11:04.889Z,39.87
2018-06-17T10:13:33.271Z,39.50
2018-06-17T10:16:00.372Z,38.99
2018-06-17T10:18:27.728Z,39.08
2018-06-17T10:20:55.228Z,39.17
2018-06-17T10:23:22.417Z,39.62
2018-06-17T10:25:49.450Z,39.47
2018-06-17T10:28:17.169Z,39.02
2018-06-17T10:30:46.272Z,38.39
2018-06-17T10:33:13.577Z,38.36
2018-06-17T10:35:41.530Z,38.41
2018-06-17T10:38:08.699Z,37.97
2018-06-17T10:40:35.710Z,38.19
2018-06-17T10:43:07.702Z,37.74
2018-06-17T10:45:34.774Z,36.92
2018-06-17T10:48:01.821Z,37.16
2018-06-17T10:50:29.009Z,37.14
2018-06-17T10:52:56.028Z,36.46
2018-06-17T10:55:23.063Z,36.58
2018-06-17T10:57:51.172Z,36.43
2018-06-17T11:00:18.165Z,36.46
2018-06-17T11:02:45.227Z,35.92
2018-06-17T11:05:12.635Z,36.52
2018-06-17T11:07:39.914Z,36.37
2018-06-17T11:10:07.340Z,35.89
2018-06-17T11:12:34.796Z,35.53
2018-06-17T11:15:01.781Z,35.70
2018-06-17T11:17:28.830Z,35.39
2018-06-17T11:19:56.204Z,34.86
2018-06-17T11:22:24.533Z,35.26
2018-06-17T11:24:51.618Z,34.74
2018-06-17T11:27:19.272Z,34.37
2018-06-17T11:29:46.292Z,33.74
2018-06-17T11:32:13.384Z,33.62
2018-06-17T11:34:40.624Z,34.20
2018-06-17T11:37:07.601Z,34.24
2018-06-17T11:39:34.690Z,33.74
2018-06-17T11:42:02.261Z,33.66
2018-06-17T11:44:29.288Z,33.93
2018-06-17T11:46:56.579Z,33.11
2018-06-17T11:49:23.921Z,33.40
2018-06-17T11:51:50.991Z,33.28
2018-06-17T11:54:18.146Z,33.50
2018-06-17T11:56:45.533Z,33.62
2018-06-17T11:59:12.603Z,34.01
2018-06-17T12:01:39.597Z,33.23
2018-06-17T12:04:07.022Z,33.57
2018-06-17T12:06:34.085Z,33.75
2018-06-17T12:09:01.350Z,33.52
2018-06-17T12:11:28.693Z,33.13
2018-06-17T12:13:55.720Z,32.53
2018-06-17T12:16:22.682Z,33.09
2018-06-17T12:18:50.034Z,32.49
2018-06-17T12:21:17.082Z,32.43
2018-06-17T12:23:44.071Z,33.11
2018-06-17T12:26:11.500Z,32.88
2018-06-17T12:28:38.487Z,32.79
2018-06-17T12:31:05.497Z,32.42
2018-06-17T12:33:32.777Z,31.94
2018-06-17T12:35:59.756Z,32.51
2018-06-17T12:38:26.943Z,32.49
2018-06-17T12:40:54.260Z,32.49
2018-06-17T12:43:21.296Z,32.48
2018-06-17T12:45:48.354Z,32.15
2018-06-17T12:48:15.779Z,32.55
2018-06-17T12:50:42.814Z,32.19
2018-06-17T12:53:10.409Z,32.33
2018-06-17T12:55:38.320Z,32.00
2018-06-17T12:58:05.409Z,31.83
2018-06-17T13:00:32.445Z,32.24
2018-06-17T13:02:59.769Z,31.83
2018-06-17T13:05:26.762Z,32.39
2018-06-17T13:07:53.809Z,31.99
2018-06-17T13:10:22.022Z,32.69
2018-06-17T13:12:49.651Z,32.78
2018-06-17T13:15:17.249Z,32.08
2018-06-17T13:17:45.252Z,32.45
2018-06-17T13:20:12.832Z,31.86
2018-06-17T13:22:40.454Z,31.73
2018-06-17T13:25:08.354Z,32.49
2018-06-17T13:31:06.908Z,32.78
2018-06-17T13:33:34.735Z,32.27
2018-06-17T13:36:02.369Z,32.70
2018-06-17T13:38:30.325Z,32.77
2018-06-17T13:40:57.970Z,32.84
2018-06-17T13:43:25.574Z,32.61
2018-06-17T13:45:53.494Z,32.89
2018-06-17T13:48:21.096Z,32.89
2018-06-17T13:50:48.722Z,33.17
2018-06-17T13:53:16.510Z,33.49
2018-06-17T13:55:44.117Z,33.31
2018-06-17T13:58:11.759Z,32.89
2018-06-17T14:00:39.872Z,33.54
2018-06-17T14:03:07.428Z,33.33
2018-06-17T14:05:35.086Z,33.29
2018-06-17T14:08:02.988Z,33.33
2018-06-17T14:10:30.738Z,33.81
2018-06-17T14:12:58.419Z,33.28
2018-06-17T14:15:26.727Z,33.79
2018-06-17T14:17:54.355Z,33.39
2018-06-17T14:20:21.974Z,33.35
2018-06-17T14:22:49.816Z,33.42
2018-06-17T14:25:17.480Z,33.59
2018-06-17T14:27:45.124Z,33.87
2018-06-17T14:30:13.078Z,33.82
2018-06-17T14:32:40.668Z,34.23
2018-06-17T14:35:08.270Z,33.61
2018-06-17T14:37:36.193Z,33.53
2018-06-17T14:40:03.879Z,33.94
2018-06-17T14:42:37.189Z,33.91
2018-06-17T14:45:10.434Z,33.19
2018-06-17T14:47:43.830Z,33.17
2018-06-17T14:50:17.282Z,33.22
2018-06-17T14:52:50.534Z,33.17
2018-06-17T14:55:18.279Z,32.97
2018-06-17T14:57:45.945Z,32.97
2018-06-17T15:00:13.557Z,33.02
2018-06-17T15:02:41.494Z,32.67
2018-06-17T15:05:09.841Z,32.51
2018-06-17T15:07:37.451Z,33.13
2018-06-17T15:10:05.374Z,33.10
2018-06-17T15:12:33.227Z,32.96
2018-06-17T15:15:00.841Z,33.34
2018-06-17T15:17:28.792Z,33.30
2018-06-17T15:19:56.492Z,33.09
2018-06-17T15:22:24.155Z,33.08
2018-06-17T15:24:52.018Z,33.28
2018-06-17T15:27:19.680Z,33.51
2018-06-17T15:29:47.352Z,33.79
2018-06-17T15:34:27.699Z,33.02
2018-06-17T15:37:00.895Z,33.84
2018-06-17T15:39:34.151Z,33.91
2018-06-17T15:42:01.966Z,33.53
2018-06-17T15:44:29.799Z,34.23
2018-06-17T15:46:57.462Z,34.20
2018-06-17T15:49:25.176Z,33.82
2018-06-17T15:51:52.947Z,33.67
2018-06-17T15:54:20.712Z,33.78
2018-06-17T15:56:48.480Z,34.22
2018-06-17T15:59:16.223Z,33.98
2018-06-17T16:01:43.798Z,34.00
2018-06-17T16:04:11.565Z,33.75
2018-06-17T16:06:39.359Z,34.02
2018-06-17T16:09:08.979Z,33.46
2018-06-17T16:11:41.191Z,33.92
2018-06-17T16:14:14.908Z,33.62
2018-06-17T16:16:47.974Z,33.50
2018-06-17T16:19:21.141Z,33.37
2018-06-17T16:21:48.951Z,33.51
2018-06-17T16:24:16.694Z,33.21
2018-06-17T16:26:44.357Z,33.33
2018-06-17T16:29:14.958Z,33.39
2018-06-17T16:31:42.652Z,33.74
2018-06-17T16:34:10.348Z,33.45
2018-06-17T16:36:38.189Z,33.40
2018-06-17T16:39:07.720Z,33.59
2018-06-17T16:41:35.408Z,34.30
2018-06-17T16:44:03.127Z,34.19
2018-06-17T16:46:30.960Z,34.19
2018-06-17T16:48:58.572Z,34.06
2018-06-17T16:51:31.768Z,34.00
2018-06-17T16:54:05.205Z,34.69
2018-06-17T16:56:38.418Z,34.88
2018-06-17T16:59:11.680Z,34.94
2018-06-17T17:01:39.486Z,35.09
2018-06-17T17:04:07.364Z,34.66
2018-06-17T17:06:35.005Z,34.74
2018-06-17T17:09:03.279Z,35.06
2018-06-17T17:11:31.205Z,34.74
2018-06-17T17:13:58.799Z,34.76
2018-06-17T17:16:26.822Z,35.35
2018-06-17T17:18:54.536Z,34.92
2018-06-17T17:21:22.173Z,34.84
2018-06-17T17:23:49.866Z,34.91
2018-06-17T17:26:17.761Z,35.28
2018-06-17T17:28:45.403Z,35.14
2018-06-17T17:31:13.162Z,35.40
2018-06-17T17:33:46.692Z,35.56
2018-06-17T17:36:20.407Z,35.62
2018-06-17T17:38:53.893Z,35.66
2018-06-17T17:41:21.778Z,35.65
2018-06-17T17:43:49.567Z,35.47
2018-06-17T17:46:22.746Z,35.88
2018-06-17T17:48:51.257Z,35.60
2018-06-17T17:51:18.962Z,36.09
2018-06-17T17:53:46.590Z,36.07
2018-06-17T17:56:14.534Z,36.11
2018-06-17T17:58:42.155Z,36.22
2018-06-17T18:01:09.783Z,36.62
2018-06-17T18:03:37.566Z,36.93
2018-06-17T18:06:05.259Z,36.86
2018-06-17T18:08:32.815Z,36.76
2018-06-17T18:11:03.620Z,37.40
2018-06-17T18:13:31.288Z,37.28
2018-06-17T18:15:59.112Z,37.37
2018-06-17T18:18:27.037Z,37.53
2018-06-17T18:20:54.768Z,37.89
2018-06-17T18:23:22.348Z,38.17
2018-06-17T18:25:55.598Z,37.83
2018-06-17T18:28:28.751Z,38.02
2018-06-17T18:31:03.488Z,37.93
2018-06-17T18:33:37.307Z,37.93
2018-06-17T18:36:09.213Z,38.38
2018-06-17T18:38:38.259Z,38.40
2018-06-17T18:41:05.972Z,38.40
2018-06-17T18:43:33.673Z,38.31
2018-06-17T18:46:01.321Z,38.83
2018-06-17T18:48:31.093Z,38.55
2018-06-17T18:50:58.875Z,38.34
2018-06-17T18:53:26.475Z,38.64
2018-06-17T18:55:54.333Z,38.53
2018-06-17T18:58:22.314Z,38.77
2018-06-17T19:00:50.959Z,39.16
2018-06-17T19:03:19.067Z,38.66
2018-06-17T19:05:46.947Z,39.20
2018-06-17T19:08:20.262Z,39.14
2018-06-17T19:10:53.586Z,39.16
2018-06-17T19:13:26.789Z,38.61
2018-06-17T19:16:00.457Z,39.20
2018-06-17T19:18:28.636Z,38.96
2018-06-17T19:20:56.873Z,38.78
2018-06-17T19:23:24.550Z,39.09
2018-06-17T19:25:52.242Z,39.14
2018-06-17T19:28:20.078Z,39.02
2018-06-17T19:30:47.702Z,39.02
2018-06-17T19:33:15.509Z,38.63
2018-06-17T19:35:43.138Z,38.91
2018-06-17T19:38:10.836Z,38.71
2018-06-17T19:40:38.514Z,38.82
2018-06-17T19:43:06.206Z,38.31
2018-06-17T19:45:33.860Z,38.73
2018-06-17T19:48:01.548Z,38.88
2018-06-17T19:50:34.748Z,38.90
2018-06-17T19:53:07.871Z,38.54
2018-06-17T19:55:41.047Z,38.39
2018-06-17T19:58:14.147Z,38.50
2018-06-17T20:00:43.652Z,38.96
2018-06-17T20:03:11.320Z,38.87
2018-06-17T20:05:38.906Z,38.71
2018-06-17T20:08:06.755Z,38.31
2018-06-17T20:10:34.372Z,38.72
2018-06-17T20:13:02.230Z,38.96
2018-06-17T20:15:29.919Z,38.43
2018-06-17T20:17:57.511Z,39.06
2018-06-17T20:20:25.353Z,38.49
2018-06-17T20:22:53.064Z,38.55
2018-06-17T20:25:20.674Z,38.55
2018-06-17T20:27:48.446Z,38.96
2018-06-17T20:30:16.344Z,38.74
2018-06-17T20:32:49.750Z,38.94
2018-06-17T20:35:23.090Z,38.62
2018-06-17T20:37:56.262Z,38.62
2018-06-17T20:40:29.760Z,38.82
2018-06-17T20:43:02.816Z,38.71
2018-06-17T20:45:30.975Z,39.27
2018-06-17T20:47:58.692Z,39.29
2018-06-17T20:50:26.306Z,38.81
2018-06-17T20:52:54.178Z,39.14
2018-06-17T20:55:21.829Z,38.77
2018-06-17T20:57:49.525Z,39.24
2018-06-17T21:00:17.319Z,38.87
2018-06-17T21:02:45.176Z,39.18
2018-06-17T21:05:12.739Z,39.28
2018-06-17T21:07:40.641Z,39.46
2018-06-17T21:10:08.254Z,39.16
2018-06-17T21:12:35.898Z,39.60
2018-06-17T21:15:19.910Z,39.14
2018-06-17T21:17:48.918Z,38.86
2018-06-17T21:20:22.222Z,39.17
2018-06-17T21:22:55.478Z,39.31
2018-06-17T21:25:28.722Z,39.37
2018-06-17T21:27:57.846Z,39.15
2018-06-17T21:30:25.525Z,39.40
2018-06-17T21:32:53.294Z,39.27
2018-06-17T21:35:20.893Z,39.05
2018-06-17T21:37:48.621Z,39.09
2018-06-17T21:40:16.286Z,39.58
2018-06-17T21:42:44.033Z,39.32
2018-06-17T21:45:11.765Z,39.17
2018-06-17T21:47:39.929Z,39.13
2018-06-17T21:50:07.655Z,39.57
2018-06-17T21:52:35.455Z,39.08
2018-06-17T21:55:03.331Z,39.17
2018-06-17T21:57:31.100Z,39.26
2018-06-17T21:59:58.774Z,39.21
2018-06-17T22:02:26.424Z,39.52
2018-06-17T22:04:54.168Z,39.06
2018-06-17T22:07:21.786Z,38.93
2018-06-17T22:09:55.061Z,38.95
2018-06-17T22:12:28.390Z,39.44
2018-06-17T22:15:01.646Z,39.39
2018-06-17T22:17:35.145Z,39.21
2018-06-17T22:20:03.087Z,38.96
2018-06-17T22:22:30.846Z,39.16
2018-06-17T22:24:58.497Z,38.96
2018-06-17T22:27:26.371Z,39.38
2018-06-17T22:29:55.077Z,39.48
2018-06-17T22:32:22.697Z,39.49
2018-06-17T22:34:50.567Z,39.10
2018-06-17T22:37:18.233Z,39.24
2018-06-17T22:39:45.968Z,39.24
2018-06-17T22:42:13.828Z,39.62
2018-06-17T22:44:41.738Z,39.60
2018-06-17T22:47:09.379Z,39.74
2018-06-17T22:49:37.253Z,40.08
2018-06-17T22:52:04.986Z,39.63
2018-06-17T22:54:44.089Z,39.72
2018-06-17T22:57:17.356Z,40.31
2018-06-17T22:59:50.577Z,39.95
2018-06-17T23:02:24.001Z,40.08
2018-06-17T23:04:57.165Z,40.52
2018-06-17T23:07:30.611Z,40.28
2018-06-17T23:09:58.383Z,40.29
2018-06-17T23:12:26.190Z,40.47
2018-06-17T23:14:53.792Z,40.81
2018-06-17T23:17:21.597Z,41.11
2018-06-17T23:19:49.447Z,41.40
2018-06-17T23:22:17.095Z,41.35
2018-06-17T23:24:44.864Z,41.79
2018-06-17T23:27:12.777Z,43.03
2018-06-17T23:29:40.345Z,43.09
2018-06-17T23:32:08.104Z,43.40
2018-06-17T23:34:35.765Z,43.80
2018-06-17T23:37:03.403Z,44.35
2018-06-17T23:39:31.304Z,44.66
2018-06-17T23:41:59.110Z,44.66
2018-06-17T23:44:26.746Z,44.76
2018-06-17T23:46:59.979Z,45.37
2018-06-17T23:49:33.346Z,45.81
2018-06-17T23:52:06.450Z,45.59
2018-06-17T23:54:39.868Z,46.08
2018-06-17T23:57:07.743Z,46.26
2018-06-17T23:59:35.582Z,46.65
